Borgloon, Belgium
Current Conditions -  °F | °C
As of 9:20 PM on Friday 28 Nov 2014 (Local Time) from EBLG Reporting Station
Haze Haze  
Wind Chill: 33°   Ceiling: Unl
Heat Index: 37°   Visibility: 3mi
Dew Point: 36°   Wind: 6mph
Humidity: 93%   Direction: 40°NE
Pressure: 29.8"   Gusts: NA
Location:  50.81°N, 5.34°E
Report Text: EBLG 282020Z 04005KT 5000 BR NSC 03/02 Q1009 NOSIG
Loading
Personal Weather Stations






























Interactive Weather Map New forecast layout! Learn more

10-Day Weather Forecast

Advertisements
Track Severe Weather on mobile